Data for 09/09/2006

Time Sea-Level Adjusted Pressure Absolute Pressure Temperature Relative Humidity Dew Point   
(mb) (inHg) (mb) (inHg) (C) (F) (%) (C) (F)
00:05 1016 30 845 24.95 16.3 61.3 47 5.1 41.2
00:10 1016 30 845 24.95 16 60.8 47 4.7 40.5
00:15 1016 30 845 24.95 16.1 60.9 46 4.7 40.4
00:20 1016 30 845 24.95 16.4 61.6 44 4.2 39.5
00:25 1015 29.97 845 24.95 16.2 61.2 46 4.8 40.6
00:30 1015 29.97 845 24.95 16.1 61 44 3.8 38.9
00:35 1015 29.97 845 24.95 16.4 61.6 42 3.7 38.6
00:40 1015 29.97 845 24.95 16.9 62.5 45 5.1 41.1
00:45 1016 30 845 24.95 17.2 63 41 4.1 39.3
00:50 1015 29.97 845 24.95 17.2 62.9 42 4.2 39.6
00:55 1015 29.97 845 24.95 17 62.5 40 3.5 38.4
01:00 1015 29.97 845 24.95 16.8 62.3 40 3.2 37.7
01:05 1015 29.97 845 24.95 16.8 62.2 40 3.3 38
01:10 1015 29.97 845 24.95 16.6 62 45 4.9 40.8
01:15 1015 29.97 845 24.95 16.8 62.2 42 3.8 38.9
01:20 1015 29.97 845 24.95 16.7 62.1 45 4.9 40.8
01:25 1015 29.97 845 24.95 16.5 61.7 43 3.9 39.1
01:30 1015 29.97 845 24.95 16.4 61.5 42 3.6 38.5
01:35 1015 29.97 845 24.95 16.5 61.7 46 5 40.9
01:40 1015 29.97 845 24.95 16.5 61.6 47 5.2 41.4
01:45 1015 29.97 845 24.95 16.2 61.1 48 5.2 41.4
01:50 1015 29.97 845 24.95 16.2 61.1 42 3.2 37.8
01:55 1015 29.97 845 24.95 16.2 61.2 51 6.2 43.1
02:00 1015 29.97 845 24.95 16.1 60.9 44 3.9 39.1
02:05 1016 30 845 24.95 15.5 59.9 49 5 41
02:10 1016 30 845 24.95 15.2 59.3 46 3.7 38.6
02:15 1016 30 845 24.95 15.7 60.3 44 3.8 38.8
02:20 1016 30 845 24.95 15.8 60.5 45 4.1 39.5
02:25 1016 30 845 24.95 15.1 59.3 49 4.6 40.2
02:30 1016 30 845 24.95 14.7 58.5 50 4.4 39.9
02:35 1016 30 845 24.95 14.7 58.4 52 5 40.9
02:40 1016 30 845 24.95 13.9 57.1 54 4.7 40.5
02:45 1016 30 845 24.95 13.8 56.8 55 5.1 41.1
02:50 1016 30 845 24.95 13.8 56.8 54 4.6 40.3
02:55 1016 30 845 24.95 13.5 56.3 56 5.1 41.1
03:00 1016 30 845 24.95 12.9 55.2 58 4.8 40.6
03:05 1016 30 845 24.95 13.2 55.7 51 3.4 38.2
03:10 1016 30 845 24.95 13.7 56.7 50 3.6 38.4
03:15 1016 30 845 24.95 14 57.1 49 3.5 38.3
03:20 1016 30 845 24.95 14.2 57.5 48 3.5 38.4
03:25 1016 30 845 24.95 13.9 57 51 3.9 39.1
03:30 1016 30 845 24.95 13.8 56.8 50 3.6 38.4
03:35 1016 30 845 24.95 13.7 56.7 51 3.8 38.9
03:40 1016 30 845 24.95 13.6 56.5 51 3.6 38.5
03:45 1016 30 845 24.95 13.7 56.7 50 3.4 38.1
03:50 1016 30 845 24.95 13.7 56.7 50 3.5 38.2
03:55 1016 30 845 24.95 13.6 56.5 49 3.3 37.9
04:00 1016 30 845 24.95 13.5 56.3 50 3.3 38
04:05 1016 30 845 24.95 13.6 56.4 49 3.2 37.8
04:10 1016 30 845 24.95 13.9 57 48 3 37.5
04:15 1016 30 845 24.95 14.1 57.5 47 3 37.5
04:20 1016 30 845 24.95 14.4 57.8 48 3.6 38.5
04:25 1016 30 845 24.95 14 57.3 49 3.5 38.3
04:30 1016 30 845 24.95 14 57.2 50 3.8 38.9
04:35 1016 30 845 24.95 13.9 56.9 51 3.9 39
04:40 1016 30 845 24.95 13.8 56.8 52 4.1 39.4
04:45 1016 30 845 24.95 13.5 56.3 54 4.3 39.8
04:50 1016 30 845 24.95 13.4 56.1 53 4.2 39.5
04:55 1016 30 845 24.95 13.6 56.4 53 4.2 39.6
05:00 1016 30 845 24.95 13.8 56.8 52 4.1 39.4
05:05 1016 30 845 24.95 14 57.1 53 4.5 40.2
05:10 1016 30 845 24.95 13.8 56.8 52 4.2 39.6
05:15 1016 30 845 24.95 13.9 57 51 4.1 39.3
05:20 1016 30 845 24.95 14 57.2 51 4 39.2
05:25 1016 30 845 24.95 14.1 57.4 51 4.2 39.6
05:30 1016 30 845 24.95 13.9 57 52 4.3 39.7
05:35 1016 30 845 24.95 13.8 56.8 51 3.9 39
05:40 1016 30 845 24.95 13.8 56.8 52 4.2 39.6
05:45 1016 30 845 24.95 13.8 56.8 52 4.2 39.6
05:50 1016 30 845 24.95 13.8 56.8 52 4.1 39.4
05:55 1016 30 845 24.95 13.8 56.9 52 4.2 39.5
06:00 1016 30 845 24.95 13.9 57 52 4.2 39.6
06:05 1016 30 845 24.95 14.1 57.4 50 4.1 39.3
06:10 1016 30 845 24.95 14.3 57.7 50 4 39.2
06:15 1016 30 845 24.95 14.6 58.2 49 4.1 39.3
06:20 1016 30 845 24.95 14.6 58.3 49 4.2 39.5
06:25 1016 30 845 24.95 14.5 58.1 50 4.4 39.9
06:30 1016 30 845 24.95 14.4 57.9 51 4.6 40.2
06:35 1016 30 845 24.95 14.3 57.7 52 4.6 40.2
06:40 1016 30 845 24.95 14.2 57.6 53 5 40.9
06:45 1016 30 845 24.95 14.1 57.3 60 6.6 43.9
06:50 1016 30 845 24.95 14.1 57.3 53 4.6 40.3
06:55 1016 30 845 24.95 14.1 57.4 59 6.2 43.2
07:00 1016 30 845 24.95 14.4 57.9 50 4.3 39.7
07:05 1016 30 845 24.95 14.5 58.2 50 4.4 40
07:10 1016 30 845 24.95 14.8 58.6 50 4.6 40.4
07:15 1016 30 845 24.95 15.2 59.3 48 4.4 39.9
07:20 1016 30 845 24.95 14.9 58.9 54 5.8 42.5
07:25 1016 30 845 24.95 15 59 49 4.4 40
07:30 1016 30 845 24.95 14.8 58.7 51 5 40.9
07:35 1016 30 845 24.95 14.6 58.3 57 6.3 43.3
07:40 1016 30 845 24.95 14.3 57.7 55 5.5 41.9
07:45 1016 30 845 24.95 14 57.2 59 6.2 43.1
07:50 1016 30 845 24.95 14.3 57.7 53 5 40.9
07:55 1016 30 845 24.95 14.1 57.3 54 5 41.1
08:00 1016 30 845 24.95 14 57.3 56 5.6 42.1
08:05 1016 30 845 24.95 13.7 56.7 57 5.4 41.7
08:10 1016 30 845 24.95 13.9 57 53 4.5 40
08:15 1016 30 845 24.95 14.1 57.5 53 4.7 40.4
08:20 1016 30 845 24.95 14 57.2 56 5.4 41.7
08:25 1016 30 845 24.95 13.8 56.8 63 7 44.5
08:30 1016 30 845 24.95 14 57.2 55 5.2 41.4
08:35 1016 30 845 24.95 14.3 57.7 55 5.3 41.5
08:40 1016 30 845 24.95 14.5 58.1 54 5.4 41.7
08:45 1016 30 845 24.95 14.5 58.2 54 5.5 41.8
08:50 1016 30 845 24.95 14.5 58 55 5.7 42.3
08:55 1016 30 845 24.95 14.6 58.3 52 5.1 41.1
09:00 1016 30 845 24.95 14.7 58.4 52 5.1 41.1
09:05 1016 30 845 24.95 14.8 58.6 52 5 41
09:10 1016 30 845 24.95 15.3 59.5 49 4.8 40.7
09:15 1016 30 845 24.95 16.1 61 47 4.9 40.9
09:20 1016 30 845 24.95 16.5 61.7 47 5.3 41.5
09:25 1016 30 845 24.95 16.3 61.3 47 5.2 41.3
09:30 1016 30 845 24.95 16.2 61.2 48 5.4 41.7
09:35 1016 30 845 24.95 16.3 61.4 48 5.3 41.5
09:40 1016 30 845 24.95 16.5 61.6 54 7.2 45
09:45 1016 30 845 24.95 16.8 62.2 46 5.3 41.5
09:50 1016 30 845 24.95 16.9 62.5 46 5.2 41.4
09:55 1016 30 845 24.95 17.2 62.9 45 5.2 41.4
10:00 1016 30 845 24.95 17.3 63.1 45 5.3 41.5
10:05 1016 30 845 24.95 17.3 63.1 43 4.7 40.4
10:10 1016 30 845 24.95 17.3 63.2 44 5 40.9
10:15 1016 30 846 24.98 17.7 63.8 41 4.4 39.9
10:20 1016 30 846 24.98 18.2 64.8 41 4.8 40.6
10:25 1016 30 846 24.98 18.7 65.6 41 5.1 41.2
10:30 1016 30 846 24.98 19 66.2 40 5.1 41.1
10:35 1016 30 846 24.98 19.3 66.8 38 5 40.9
10:40 1016 30 846 24.98 19.3 66.7 39 5.1 41.2
10:45 1016 30 846 24.98 19.1 66.3 39 5 41.1
10:50 1016 30 846 24.98 19.2 66.6 39 5.2 41.4
10:55 1016 30 846 24.98 19.3 66.7 39 5.2 41.4
11:00 1016 30 846 24.98 19.3 66.8 39 5.1 41.2
11:05 1016 30 845 24.95 19.1 66.4 40 5.5 41.8
11:10 1016 30 845 24.95 19.6 67.4 38 5.2 41.4
11:15 1016 30 845 24.95 19.6 67.3 42 6.5 43.7
11:20 1016 30 845 24.95 19.4 66.8 41 5.9 42.6
11:25 1016 30 845 24.95 19.1 66.4 42 6.1 42.9
11:30 1016 30 845 24.95 19.2 66.5 42 6.3 43.3
11:35 1016 30 845 24.95 19.4 66.9 42 6.5 43.6
11:40 1016 30 845 24.95 19.4 66.9 40 5.7 42.3
11:45 1016 30 845 24.95 19.5 67.1 41 6.1 43
11:50 1016 30 845 24.95 19.6 67.4 41 6.3 43.3
11:55 1016 30 845 24.95 20.2 68.3 38 5.5 41.9
12:00 1016 30 845 24.95 20.6 69.1 36 5.3 41.5
12:05 1016 30 845 24.95 20.4 68.7 38 5.6 42.1
12:10 1016 30 845 24.95 20.7 69.3 35 5 41.1
12:15 1016 30 845 24.95 20.6 69 36 5 41.1
12:20 1016 30 845 24.95 20.2 68.4 36 4.7 40.4
12:25 1016 30 845 24.95 20.7 69.2 34 4.6 40.2
12:30 1016 30 845 24.95 21 69.7 34 4.7 40.4
12:35 1016 30 845 24.95 21.3 70.3 33 4.6 40.3
12:40 1016 30 845 24.95 22.1 71.8 33 5.3 41.5
12:45 1016 30 845 24.95 22 71.6 32 5 41
12:50 1016 30 845 24.95 21.6 70.8 34 5.1 41.1
12:55 1016 30 845 24.95 21.6 70.8 33 4.9 40.9
13:00 1016 30 845 24.95 21.9 71.5 33 5.2 41.3
13:05 1016 30 845 24.95 22.7 72.9 30 4.7 40.4
13:10 1016 30 845 24.95 23.1 73.5 31 5.1 41.2
13:15 1016 30 845 24.95 22.8 73.1 31 5 41
13:20 1016 30 845 24.95 23.3 74 30 5.1 41.1
13:25 1016 30 845 24.95 23.4 74 29 4.6 40.3
13:30 1015 29.97 845 24.95 23.7 74.7 29 4.8 40.7
13:35 1015 29.97 845 24.95 23.7 74.6 30 5.1 41.3
13:40 1015 29.97 845 24.95 23.9 75 30 5.3 41.6
13:45 1015 29.97 845 24.95 23.6 74.4 29 4.9 40.9
13:50 1015 29.97 845 24.95 23.8 74.8 29 4.8 40.7
13:55 1015 29.97 845 24.95 23.3 73.9 30 4.9 40.7
14:00 1015 29.97 844 24.92 23.1 73.6 30 4.6 40.3
14:05 1015 29.97 844 24.92 23.4 74.2 30 5 41
14:10 1015 29.97 844 24.92 22.9 73.3 30 4.7 40.4
14:15 1015 29.97 844 24.92 22.6 72.6 31 4.8 40.6
14:20 1015 29.97 844 24.92 22.5 72.6 31 4.7 40.5
14:25 1015 29.97 844 24.92 22.6 72.7 31 4.9 40.8
14:30 1015 29.97 844 24.92 22.9 73.2 31 4.9 40.8
14:35 1015 29.97 844 24.92 24 75.2 28 4.4 39.8
14:40 1015 29.97 844 24.92 24.5 76.2 28 4.9 40.9
14:45 1015 29.97 844 24.92 24.8 76.6 27 4.9 40.8
14:50 1015 29.97 844 24.92 24.9 76.8 27 4.7 40.4
14:55 1015 29.97 844 24.92 24.8 76.6 28 5 41.1
15:00 1015 29.97 844 24.92 24.8 76.6 27 4.9 40.9
15:05 1015 29.97 844 24.92 24.6 76.2 27 4.6 40.2
15:10 1015 29.97 844 24.92 24.4 75.8 27 4.4 39.9
15:15 1015 29.97 844 24.92 24.3 75.7 27 4.3 39.7
15:20 1015 29.97 844 24.92 24.2 75.6 29 5.1 41.2
15:25 1015 29.97 844 24.92 24.3 75.7 27 4.3 39.8
15:30 1015 29.97 844 24.92 24.6 76.2 27 4.7 40.5
15:35 1015 29.97 844 24.92 24.8 76.6 27 4.8 40.7
15:40 1015 29.97 844 24.92 25.2 77.3 25 4.2 39.5
15:45 1015 29.97 844 24.92 25 77 26 4.3 39.7
15:50 1015 29.97 844 24.92 25.2 77.4 25 3.8 38.9
15:55 1015 29.97 844 24.92 25 77 25 4 39.2
16:00 1014 29.94 844 24.92 25.5 77.9 25 4.3 39.7
16:05 1014 29.94 844 24.92 25.6 78.1 25 4.5 40.2
16:10 1014 29.94 844 24.92 25.5 78 25 4.4 39.9
16:15 1014 29.94 844 24.92 24.9 76.8 25 4 39.1
16:20 1014 29.94 844 24.92 24.7 76.4 26 4.1 39.3
16:25 1014 29.94 844 24.92 25.1 77.1 25 3.7 38.7
16:30 1014 29.94 844 24.92 25.4 77.7 25 4.2 39.6
16:35 1014 29.94 844 24.92 25.6 78.2 24 3.9 39
16:40 1014 29.94 844 24.92 25.7 78.3 24 4 39.3
16:45 1014 29.94 844 24.92 24.5 76.1 26 4.2 39.5
16:50 1014 29.94 844 24.92 24.3 75.7 26 3.8 38.8
16:55 1014 29.94 844 24.92 24.7 76.4 25 3.5 38.4
17:00 1014 29.94 844 24.92 24.4 75.9 27 4.2 39.5
17:05 1014 29.94 844 24.92 24.2 75.5 26 3.7 38.7
17:10 1014 29.94 844 24.92 24.2 75.5 26 3.8 38.8
17:15 1014 29.94 844 24.92 24.7 76.4 26 4 39.2
17:20 1014 29.94 844 24.92 24.5 76 26 4.1 39.4
17:25 1014 29.94 843 24.89 25 77 25 3.9 39
17:30 1014 29.94 843 24.89 25.2 77.4 25 4.1 39.4
17:35 1014 29.94 843 24.89 25.4 77.7 24 3.7 38.6
17:40 1014 29.94 843 24.89 25.3 77.5 24 3.8 38.8
17:45 1014 29.94 844 24.92 25.1 77.1 25 3.8 38.8
17:50 1014 29.94 844 24.92 24.8 76.7 25 3.6 38.5
17:55 1014 29.94 844 24.92 24.7 76.4 26 3.9 39
18:00 1014 29.94 844 24.92 24.6 76.2 26 4.1 39.4
18:05 1014 29.94 844 24.92 24.3 75.7 26 3.9 39.1
18:10 1014 29.94 844 24.92 24 75.2 26 3.5 38.4
18:15 1014 29.94 844 24.92 23.9 75 27 4.1 39.3
18:20 1014 29.94 844 24.92 23.5 74.4 27 3.7 38.6
18:25 1014 29.94 844 24.92 23.4 74.1 28 4 39.2
18:30 1014 29.94 844 24.92 22.9 73.1 28 3.8 38.8
18:35 1014 29.94 844 24.92 22.8 73.1 29 3.9 39.1
18:40 1014 29.94 844 24.92 22.6 72.6 29 4 39.2
18:45 1014 29.94 844 24.92 22.4 72.3 30 4.2 39.5
18:50 1014 29.94 844 24.92 22.3 72.1 30 4.1 39.4
18:55 1014 29.94 844 24.92 22.1 71.7 30 3.9 39.1
19:00 1015 29.97 844 24.92 22 71.6 30 3.8 38.8
19:05 1015 29.97 844 24.92 22 71.5 29 3.6 38.4
19:10 1015 29.97 844 24.92 22 71.6 30 3.7 38.7
19:15 1015 29.97 844 24.92 22 71.6 30 3.8 38.9
19:20 1015 29.97 844 24.92 22 71.5 30 3.8 38.8
19:25 1015 29.97 844 24.92 22 71.6 30 4 39.3
19:30 1015 29.97 844 24.92 21.9 71.5 32 4.9 40.8
19:35 1015 29.97 844 24.92 21.8 71.3 32 4.8 40.6
19:40 1015 29.97 844 24.92 21.4 70.4 36 6 42.8
19:45 1015 29.97 844 24.92 20.8 69.4 33 4.1 39.4
19:50 1015 29.97 844 24.92 20.2 68.4 37 5.1 41.2
19:55 1015 29.97 844 24.92 19.8 67.6 37 4.9 40.9
20:00 1015 29.97 844 24.92 19.7 67.4 41 6.3 43.4
20:05 1015 29.97 844 24.92 19.5 67 40 5.8 42.5
20:10 1015 29.97 844 24.92 19.2 66.6 40 5.6 42
20:15 1015 29.97 844 24.92 19.1 66.4 39 5 41
20:20 1015 29.97 844 24.92 19.2 66.6 39 5.2 41.3
20:25 1015 29.97 844 24.92 19.1 66.3 39 5.1 41.2
20:30 1015 29.97 844 24.92 18.9 66 41 5.5 41.8
20:35 1015 29.97 845 24.95 18.5 65.3 42 5.5 41.9
20:40 1015 29.97 845 24.95 18.1 64.7 43 5.4 41.7
20:45 1016 30 845 24.95 17.8 64.1 43 5.1 41.2
20:50 1016 30 845 24.95 17.9 64.3 43 5.5 41.8
20:55 1016 30 845 24.95 17.7 63.9 44 5.6 42.1
21:00 1016 30 845 24.95 17.3 63.2 46 5.6 42.1
21:05 1016 30 845 24.95 17.1 62.8 46 5.6 42
21:10 1016 30 845 24.95 17.2 63 52 7.3 45.1
21:15 1016 30 845 24.95 17.3 63.1 45 5.5 41.9
21:20 1016 30 845 24.95 17.4 63.4 47 6.1 43.1
21:25 1016 30 845 24.95 17.6 63.8 45 5.7 42.3
21:30 1016 30 845 24.95 17.4 63.3 46 5.7 42.2
21:35 1016 30 845 24.95 17.2 62.9 46 5.6 42.1
21:40 1016 30 846 24.98 17 62.6 47 5.6 42.2
21:45 1016 30 846 24.98 16.9 62.4 48 5.8 42.5
21:50 1017 30.03 846 24.98 16.9 62.5 47 5.5 42
21:55 1017 30.03 846 24.98 17.2 63 46 5.8 42.4
22:00 1017 30.03 846 24.98 17.5 63.4 44 5.2 41.4
22:05 1017 30.03 846 24.98 17.9 64.1 44 5.6 42.1
22:10 1017 30.03 846 24.98 17.7 63.9 44 5.3 41.6
22:15 1017 30.03 846 24.98 17.8 64 45 5.7 42.2
22:20 1017 30.03 847 25.01 17.8 64 46 6 42.8
22:25 1017 30.03 847 25.01 17.5 63.6 45 5.6 42.1
22:30 1017 30.03 847 25.01 17.1 62.9 50 6.7 44.1
22:35 1017 30.03 847 25.01 16.6 61.9 52 6.8 44.2
22:40 1017 30.03 847 25.01 16.5 61.7 51 6.3 43.4
22:45 1017 30.03 847 25.01 17 62.5 47 5.8 42.5
22:50 1017 30.03 847 25.01 17.1 62.9 49 6.6 43.8
22:55 1018 30.06 847 25.01 16.8 62.2 52 7 44.7
23:00 1018 30.06 847 25.01 16.2 61.2 55 7.3 45.1
23:05 1018 30.06 847 25.01 16 60.9 54 6.9 44.5
23:10 1018 30.06 847 25.01 16.1 60.9 56 7.3 45.1
23:15 1018 30.06 847 25.01 16.2 61.1 55 7.2 45
23:20 1018 30.06 847 25.01 16.3 61.4 55 7.2 45
23:25 1018 30.06 847 25.01 16.2 61.1 55 7.2 45
23:30 1018 30.06 847 25.01 16.1 61.1 55 7.2 44.9
23:35 1018 30.06 847 25.01 16.2 61.1 55 7.2 44.9
23:40 1018 30.06 847 25.01 16.2 61.1 53 6.8 44.3
23:45 1018 30.06 847 25.01 16.3 61.3 56 7.5 45.5
23:50 1018 30.06 847 25.01 16 60.8 56 7.4 45.3
23:55 1018 30.06 847 25.01 16.2 61.2 56 7.4 45.3
24:00 1018 30.06 847 25.01 16 60.9 54 6.8 44.3